Elbert, Colorado
Current Conditions -  °F | °C
As of 1:54 PM on Saturday 20 Dec 2014 (Local Time) from KMNH Reporting Station
Clear Clear  
Wind Chill: 45°   Ceiling: Unl
Heat Index: 45°   Visibility: 10mi
Dew Point: 14°   Wind: 0mph
Humidity: 29%   Direction: NA
Pressure: 29.94"   Gusts: NA
Location:  39.22°N, 104.54°W
Report Text: KMNH 202054Z AUTO 00000KT 10SM CLR 07/M10 A2994 RMK AO2
Loading
Personal Weather Stations






























Interactive Weather Map New forecast layout! Learn more

10-Day Weather Forecast

Advertisements
Track Severe Weather on mobile